createdAt,value
2022-07-28T00:00:36.091Z,1.10
2022-07-28T00:01:36.849Z,1.00
2022-07-28T00:02:36.117Z,0.90
2022-07-28T00:03:36.049Z,1.20
2022-07-28T00:04:36.026Z,1.20
2022-07-28T00:05:36.016Z,1.30
2022-07-28T00:06:36.024Z,1.40
2022-07-28T00:07:35.989Z,0.90
2022-07-28T00:08:35.977Z,1.20
2022-07-28T00:09:36.004Z,1.10
2022-07-28T00:10:35.945Z,1.10
2022-07-28T00:11:35.969Z,0.90
2022-07-28T00:12:36.927Z,1.10
2022-07-28T00:13:35.911Z,1.20
2022-07-28T00:14:35.909Z,1.20
2022-07-28T00:15:35.885Z,1.30
2022-07-28T00:16:35.943Z,1.10
2022-07-28T00:17:35.864Z,1.20
2022-07-28T00:18:35.855Z,1.10
2022-07-28T00:19:35.889Z,1.30
2022-07-28T00:20:35.824Z,1.20
2022-07-28T00:21:35.835Z,1.30
2022-07-28T00:22:35.795Z,1.60
2022-07-28T00:23:38.842Z,1.70
2022-07-28T00:24:35.826Z,1.40
2022-07-28T00:25:35.755Z,1.40
2022-07-28T00:26:35.785Z,1.30
2022-07-28T00:27:35.835Z,1.20
2022-07-28T00:28:35.724Z,1.40
2022-07-28T00:29:49.126Z,1.10
2022-07-28T00:30:36.694Z,1.40
2022-07-28T00:31:35.770Z,1.20
2022-07-28T00:32:35.664Z,1.40
2022-07-28T00:33:35.655Z,1.00
2022-07-28T00:34:35.637Z,1.30
2022-07-28T00:35:35.685Z,1.40
2022-07-28T00:36:35.644Z,1.30
2022-07-28T00:37:35.597Z,1.20
2022-07-28T00:38:35.595Z,1.40
2022-07-28T00:39:35.574Z,1.30
2022-07-28T00:40:35.580Z,1.30
2022-07-28T00:41:35.574Z,1.20
2022-07-28T00:42:35.536Z,1.70
2022-07-28T00:43:35.513Z,1.80
2022-07-28T00:44:35.502Z,1.90
2022-07-28T00:45:35.494Z,1.60
2022-07-28T00:46:35.550Z,1.50
2022-07-28T00:47:35.462Z,1.60
2022-07-28T00:48:35.487Z,1.40
2022-07-28T00:49:35.441Z,1.50
2022-07-28T00:50:35.433Z,1.40
2022-07-28T00:51:35.442Z,1.50
2022-07-28T00:52:35.403Z,1.20
2022-07-28T00:53:35.653Z,1.50
2022-07-28T00:54:35.384Z,1.70
2022-07-28T00:56:04.084Z,1.70
2022-07-28T00:56:36.381Z,1.60
2022-07-28T00:57:35.343Z,1.50
2022-07-28T00:58:35.332Z,1.30
2022-07-28T00:59:35.322Z,1.60
2022-07-28T01:00:35.308Z,1.30
2022-07-28T01:01:35.367Z,1.20
2022-07-28T01:02:35.417Z,1.30
2022-07-28T01:03:35.363Z,1.80
2022-07-28T01:04:35.250Z,1.40
2022-07-28T01:05:43.370Z,1.40
2022-07-28T01:06:36.264Z,1.20
2022-07-28T01:07:35.208Z,1.40
2022-07-28T01:08:35.211Z,1.50
2022-07-28T01:09:35.189Z,1.60
2022-07-28T01:10:35.178Z,1.80
2022-07-28T01:11:42.558Z,1.20
2022-07-28T01:12:36.142Z,1.10
2022-07-28T01:13:35.130Z,1.60
2022-07-28T01:14:35.121Z,1.50
2022-07-28T01:15:35.108Z,1.20
2022-07-28T01:16:35.164Z,1.60
2022-07-28T01:17:35.072Z,1.20
2022-07-28T01:18:35.289Z,1.20
2022-07-28T01:19:35.054Z,1.20
2022-07-28T01:20:35.048Z,1.20
2022-07-28T01:21:35.049Z,1.50
2022-07-28T01:22:35.009Z,1.00
2022-07-28T01:23:35.000Z,1.30
2022-07-28T01:24:36.040Z,1.40
2022-07-28T01:25:34.971Z,1.10
2022-07-28T01:26:34.993Z,1.50
2022-07-28T01:27:35.883Z,1.40
2022-07-28T01:28:34.936Z,1.30
2022-07-28T01:29:34.935Z,1.50
2022-07-28T01:30:34.908Z,1.50
2022-07-28T01:31:35.019Z,1.20
2022-07-28T01:32:34.879Z,1.40
2022-07-28T01:33:34.870Z,1.30
2022-07-28T01:34:34.858Z,1.30
2022-07-28T01:35:34.839Z,1.50
2022-07-28T01:36:34.865Z,1.50
2022-07-28T01:37:34.821Z,1.10
2022-07-28T01:38:34.817Z,1.40
2022-07-28T01:39:34.788Z,1.40
2022-07-28T01:40:34.778Z,1.40
2022-07-28T01:41:34.794Z,1.20
2022-07-28T01:42:34.758Z,1.70
2022-07-28T01:43:34.739Z,1.40
2022-07-28T01:44:34.748Z,1.80
2022-07-28T01:45:34.707Z,1.60
2022-07-28T01:46:34.775Z,1.50
2022-07-28T01:47:34.688Z,1.70
2022-07-28T01:48:34.818Z,1.80
2022-07-28T01:49:34.660Z,1.60
2022-07-28T01:50:35.499Z,1.60
2022-07-28T01:51:34.657Z,1.40
2022-07-28T01:52:34.628Z,1.40
2022-07-28T01:53:37.570Z,1.30
2022-07-28T01:54:34.597Z,1.30
2022-07-28T01:55:34.576Z,1.10
2022-07-28T01:56:34.737Z,1.30
2022-07-28T01:57:37.128Z,1.60
2022-07-28T01:58:34.561Z,1.80
2022-07-28T01:59:34.534Z,1.60
2022-07-28T02:00:37.191Z,1.60
2022-07-28T02:01:34.654Z,1.50
2022-07-28T02:02:34.739Z,1.70
2022-07-28T02:03:34.803Z,1.40
2022-07-28T02:04:34.522Z,1.60
2022-07-28T02:05:34.575Z,1.50
2022-07-28T02:06:34.479Z,1.60
2022-07-28T02:07:35.565Z,1.00
2022-07-28T02:08:34.933Z,1.50
2022-07-28T02:09:34.412Z,1.40
2022-07-28T02:10:34.426Z,1.10
2022-07-28T02:11:34.414Z,1.60
2022-07-28T02:12:34.366Z,1.30
2022-07-28T02:13:34.349Z,1.30
2022-07-28T02:14:34.336Z,1.60
2022-07-28T02:15:34.348Z,1.30
2022-07-28T02:16:34.386Z,1.30
2022-07-28T02:17:34.295Z,1.60
2022-07-28T02:18:34.435Z,1.50
2022-07-28T02:19:34.275Z,1.40
2022-07-28T02:20:34.256Z,1.50
2022-07-28T02:21:36.274Z,1.40
2022-07-28T02:22:34.274Z,1.50
2022-07-28T02:23:34.214Z,1.30
2022-07-28T02:24:34.198Z,1.90
2022-07-28T02:25:34.195Z,1.40
2022-07-28T02:26:34.174Z,1.50
2022-07-28T02:27:34.201Z,1.90
2022-07-28T02:28:34.144Z,1.40
2022-07-28T02:29:50.237Z,1.40
2022-07-28T02:30:35.210Z,1.10
2022-07-28T02:31:34.216Z,1.20
2022-07-28T02:32:34.184Z,1.60
2022-07-28T02:33:59.252Z,1.40
2022-07-28T02:34:35.120Z,1.60
2022-07-28T02:35:34.120Z,1.30
2022-07-28T02:36:34.057Z,1.50
2022-07-28T02:37:34.062Z,1.50
2022-07-28T02:38:34.028Z,1.40
2022-07-28T02:39:34.012Z,1.40
2022-07-28T02:40:33.993Z,1.40
2022-07-28T02:41:33.983Z,1.30
2022-07-28T02:42:34.152Z,1.40
2022-07-28T02:43:49.555Z,1.10
2022-07-28T02:44:34.946Z,1.50
2022-07-28T02:45:33.944Z,1.20
2022-07-28T02:46:34.018Z,1.20
2022-07-28T02:47:34.003Z,1.80
2022-07-28T02:48:33.932Z,1.20
2022-07-28T02:49:33.956Z,1.40
2022-07-28T02:50:33.873Z,1.00
2022-07-28T02:51:33.860Z,1.40
2022-07-28T02:52:33.863Z,1.40
2022-07-28T02:53:33.832Z,1.60
2022-07-28T02:54:34.085Z,1.30
2022-07-28T02:55:33.854Z,1.50
2022-07-28T02:56:33.812Z,1.10
2022-07-28T02:57:33.853Z,1.60
2022-07-28T02:58:33.864Z,1.10
2022-07-28T02:59:33.833Z,1.50
2022-07-28T03:00:33.750Z,1.20
2022-07-28T03:01:33.784Z,1.20
2022-07-28T03:02:33.771Z,1.40
2022-07-28T03:03:33.851Z,1.40
2022-07-28T03:04:33.673Z,1.30
2022-07-28T03:05:34.011Z,1.30
2022-07-28T03:06:33.670Z,1.40
2022-07-28T03:07:33.633Z,1.30
2022-07-28T03:08:33.601Z,1.10
2022-07-28T03:09:33.581Z,1.30
2022-07-28T03:10:34.875Z,1.30
2022-07-28T03:11:33.608Z,1.20
2022-07-28T03:12:33.609Z,1.40
2022-07-28T03:13:34.160Z,1.30
2022-07-28T03:14:33.502Z,1.00
2022-07-28T03:15:34.278Z,1.20
2022-07-28T03:16:33.522Z,1.30
2022-07-28T03:17:33.490Z,1.30
2022-07-28T03:18:33.440Z,1.10
2022-07-28T03:19:33.438Z,1.30
2022-07-28T03:20:33.423Z,1.10
2022-07-28T03:21:33.411Z,1.40
2022-07-28T03:22:33.430Z,1.10
2022-07-28T03:23:33.397Z,1.20
2022-07-28T03:24:34.791Z,1.40
2022-07-28T03:25:33.362Z,1.40
2022-07-28T03:26:33.349Z,1.20
2022-07-28T03:27:33.368Z,1.30
2022-07-28T03:28:33.321Z,1.20
2022-07-28T03:29:33.569Z,1.30
2022-07-28T03:30:34.102Z,1.30
2022-07-28T03:31:34.209Z,1.30
2022-07-28T03:32:33.296Z,1.10
2022-07-28T03:33:33.479Z,1.10
2022-07-28T03:34:33.250Z,1.10
2022-07-28T03:35:33.237Z,0.90
2022-07-28T03:36:33.219Z,1.10
2022-07-28T03:37:33.228Z,1.30
2022-07-28T03:38:33.198Z,1.50
2022-07-28T03:39:33.188Z,1.40
2022-07-28T03:40:33.175Z,1.60
2022-07-28T03:41:33.149Z,1.10
2022-07-28T03:42:33.159Z,1.20
2022-07-28T03:43:33.158Z,1.10
2022-07-28T03:44:33.107Z,1.40
2022-07-28T03:45:33.246Z,1.10
2022-07-28T03:46:33.157Z,1.40
2022-07-28T03:47:33.120Z,1.50
2022-07-28T03:48:33.117Z,1.70
2022-07-28T03:49:33.047Z,1.70
2022-07-28T03:50:33.038Z,1.40
2022-07-28T03:51:33.017Z,1.60
2022-07-28T03:52:33.036Z,1.30
2022-07-28T03:53:32.996Z,1.50
2022-07-28T03:54:32.995Z,1.30
2022-07-28T03:55:32.986Z,1.60
2022-07-28T03:56:32.954Z,1.10
2022-07-28T03:57:32.978Z,1.00
2022-07-28T03:58:32.924Z,1.40
2022-07-28T03:59:33.827Z,1.10
2022-07-28T04:00:33.736Z,1.30
2022-07-28T04:01:32.987Z,1.40
2022-07-28T04:02:32.958Z,1.20
2022-07-28T04:03:42.709Z,1.60
2022-07-28T04:04:33.859Z,1.20
2022-07-28T04:05:32.838Z,1.40
2022-07-28T04:06:33.015Z,1.20
2022-07-28T04:07:32.847Z,1.20
2022-07-28T04:08:32.796Z,1.20
2022-07-28T04:09:32.785Z,0.90
2022-07-28T04:10:32.769Z,1.10
2022-07-28T04:11:32.766Z,1.30
2022-07-28T04:12:33.489Z,1.10
2022-07-28T04:13:32.739Z,1.10
2022-07-28T04:14:32.715Z,1.00
2022-07-28T04:15:32.706Z,1.30
2022-07-28T04:16:32.747Z,1.40
2022-07-28T04:17:32.715Z,1.20
2022-07-28T04:18:32.679Z,1.20
2022-07-28T04:19:32.654Z,1.10
2022-07-28T04:20:32.647Z,1.10
2022-07-28T04:21:33.096Z,1.10
2022-07-28T04:22:32.646Z,1.10
2022-07-28T04:23:32.604Z,1.20
2022-07-28T04:24:33.475Z,1.30
2022-07-28T04:25:32.575Z,1.60
2022-07-28T04:26:32.586Z,1.40
2022-07-28T04:27:32.544Z,1.20
2022-07-28T04:28:32.534Z,1.50
2022-07-28T04:29:33.516Z,1.00
2022-07-28T04:30:33.480Z,1.40
2022-07-28T04:31:32.617Z,1.30
2022-07-28T04:32:32.476Z,1.30
2022-07-28T04:33:32.473Z,0.80
2022-07-28T04:34:32.453Z,1.00
2022-07-28T04:35:32.456Z,1.30
2022-07-28T04:36:32.453Z,1.00
2022-07-28T04:37:32.685Z,1.10
2022-07-28T04:38:32.423Z,1.10
2022-07-28T04:39:32.454Z,1.10
2022-07-28T04:40:32.373Z,1.00
2022-07-28T04:41:33.033Z,0.90
2022-07-28T04:42:34.974Z,1.30
2022-07-28T04:43:32.342Z,1.10
2022-07-28T04:44:32.323Z,0.90
2022-07-28T04:45:32.368Z,1.10
2022-07-28T04:46:32.469Z,1.00
2022-07-28T04:47:32.283Z,1.20
2022-07-28T04:48:32.365Z,1.00
2022-07-28T04:49:32.262Z,1.30
2022-07-28T04:50:32.242Z,1.20
2022-07-28T04:51:32.261Z,1.10
2022-07-28T04:52:33.198Z,0.90
2022-07-28T04:53:32.217Z,1.10
2022-07-28T04:54:32.202Z,1.20
2022-07-28T04:55:32.181Z,0.70
2022-07-28T04:56:32.205Z,1.20
2022-07-28T04:57:33.121Z,1.20
2022-07-28T04:58:33.033Z,1.10
2022-07-28T04:59:32.940Z,1.10
2022-07-28T05:00:32.242Z,0.90
2022-07-28T05:01:32.328Z,1.10
2022-07-28T05:02:32.092Z,1.10
2022-07-28T05:03:36.122Z,1.60
2022-07-28T05:04:32.104Z,1.10
2022-07-28T05:05:32.052Z,1.10
2022-07-28T05:06:32.061Z,1.70
2022-07-28T05:07:32.021Z,1.30
2022-07-28T05:08:32.015Z,1.40
2022-07-28T05:09:32.014Z,1.30
2022-07-28T05:10:31.993Z,1.40
2022-07-28T05:11:32.004Z,1.20
2022-07-28T05:12:31.961Z,1.30
2022-07-28T05:13:34.277Z,0.90
2022-07-28T05:14:31.934Z,1.00
2022-07-28T05:15:31.923Z,1.10
2022-07-28T05:16:31.953Z,0.90
2022-07-28T05:17:31.901Z,1.20
2022-07-28T05:18:33.120Z,1.10
2022-07-28T05:19:31.871Z,1.40
2022-07-28T05:20:31.849Z,1.10
2022-07-28T05:21:31.879Z,1.00
2022-07-28T05:22:31.821Z,1.10
2022-07-28T05:23:31.818Z,1.60
2022-07-28T05:24:31.800Z,1.10
2022-07-28T05:25:31.900Z,1.00
2022-07-28T05:26:31.987Z,1.20
2022-07-28T05:27:31.821Z,1.20
2022-07-28T05:28:31.948Z,1.20
2022-07-28T05:29:47.400Z,1.30
2022-07-28T05:30:35.592Z,1.50
2022-07-28T05:31:31.777Z,1.40
2022-07-28T05:32:31.800Z,1.10
2022-07-28T05:33:32.034Z,1.10
2022-07-28T05:34:31.878Z,1.30
2022-07-28T05:35:31.676Z,1.20
2022-07-28T05:36:32.038Z,1.40
2022-07-28T05:37:32.069Z,1.20
2022-07-28T05:38:32.047Z,1.50
2022-07-28T05:39:34.891Z,1.10
2022-07-28T05:40:32.063Z,1.20
2022-07-28T05:41:33.108Z,1.50
2022-07-28T05:42:32.329Z,1.20
2022-07-28T05:43:32.288Z,1.10
2022-07-28T05:44:37.601Z,1.40
2022-07-28T05:45:32.753Z,1.30
2022-07-28T05:46:31.637Z,1.10
2022-07-28T05:47:31.638Z,1.30
2022-07-28T05:48:32.143Z,1.00
2022-07-28T05:49:31.846Z,1.20
2022-07-28T05:50:32.408Z,1.30
2022-07-28T05:51:32.295Z,1.30
2022-07-28T05:52:32.196Z,1.10
2022-07-28T05:53:31.637Z,1.20
2022-07-28T05:54:31.630Z,1.20
2022-07-28T05:55:32.187Z,1.20
2022-07-28T05:56:32.257Z,1.20
2022-07-28T05:57:31.639Z,1.20
2022-07-28T05:58:32.138Z,1.10
2022-07-28T05:59:32.130Z,1.20
2022-07-28T06:00:32.196Z,1.30
2022-07-28T06:01:31.410Z,1.30
2022-07-28T06:02:31.458Z,1.00
2022-07-28T06:03:31.437Z,0.90
2022-07-28T06:04:31.823Z,0.70
2022-07-28T06:05:31.551Z,0.70
2022-07-28T06:06:31.598Z,0.80
2022-07-28T06:07:42.733Z,0.70
2022-07-28T06:08:32.965Z,0.80
2022-07-28T06:09:31.767Z,0.80
2022-07-28T06:10:31.507Z,0.70
2022-07-28T06:11:31.597Z,0.80
2022-07-28T06:12:31.896Z,0.70
2022-07-28T06:13:31.186Z,0.90
2022-07-28T06:14:31.613Z,0.80
2022-07-28T06:15:31.616Z,0.80
2022-07-28T06:16:31.901Z,0.90
2022-07-28T06:17:32.004Z,0.70
2022-07-28T06:18:32.085Z,0.70
2022-07-28T06:19:31.106Z,0.90
2022-07-28T06:20:31.107Z,0.80
2022-07-28T06:21:31.966Z,0.80
2022-07-28T06:22:32.357Z,0.90
2022-07-28T06:23:31.219Z,0.90
2022-07-28T06:24:31.958Z,0.80
2022-07-28T06:25:31.845Z,0.70
2022-07-28T06:26:31.745Z,0.90
2022-07-28T06:27:31.178Z,0.60
2022-07-28T06:28:30.996Z,0.80
2022-07-28T06:29:31.786Z,0.80
2022-07-28T06:30:31.875Z,0.80
2022-07-28T06:31:32.101Z,0.70
2022-07-28T06:32:30.936Z,0.70
2022-07-28T06:33:30.976Z,0.80
2022-07-28T06:34:31.056Z,0.70
2022-07-28T06:35:31.084Z,0.70
2022-07-28T06:36:32.580Z,0.70
2022-07-28T06:37:31.194Z,0.70
2022-07-28T06:38:31.260Z,0.90
2022-07-28T06:39:30.965Z,0.60
2022-07-28T06:40:31.374Z,0.60
2022-07-28T06:41:31.317Z,0.80
2022-07-28T06:42:30.937Z,0.80
2022-07-28T06:43:34.179Z,0.80
2022-07-28T06:44:54.982Z,0.70
2022-07-28T06:45:33.607Z,0.70
2022-07-28T06:46:31.430Z,1.30
2022-07-28T06:47:31.529Z,0.80
2022-07-28T06:48:31.588Z,0.60
2022-07-28T06:49:31.278Z,0.50
2022-07-28T06:50:30.714Z,1.00
2022-07-28T06:51:31.267Z,0.60
2022-07-28T06:52:31.555Z,0.80
2022-07-28T06:53:33.788Z,0.90
2022-07-28T06:54:31.368Z,0.70
2022-07-28T06:55:34.481Z,0.60
2022-07-28T06:56:32.106Z,1.00
2022-07-28T06:57:33.667Z,0.60
2022-07-28T06:58:30.597Z,0.50
2022-07-28T06:59:31.086Z,0.50
2022-07-28T07:00:30.681Z,0.40
2022-07-28T07:01:30.812Z,0.80
2022-07-28T07:02:30.652Z,0.70
2022-07-28T07:03:30.695Z,0.70
2022-07-28T07:04:30.778Z,0.50
2022-07-28T07:05:30.814Z,0.60
2022-07-28T07:06:30.527Z,0.70
2022-07-28T07:07:30.907Z,1.20
2022-07-28T07:08:30.977Z,0.60
2022-07-28T07:09:31.026Z,1.30
2022-07-28T07:10:31.074Z,0.50
2022-07-28T07:11:31.089Z,0.40
2022-07-28T07:12:31.558Z,0.60
2022-07-28T07:13:31.265Z,0.40
2022-07-28T07:14:31.237Z,0.40
2022-07-28T07:15:30.563Z,0.50
2022-07-28T07:16:31.348Z,0.50
2022-07-28T07:17:31.085Z,0.70
2022-07-28T07:18:31.106Z,0.60
2022-07-28T07:19:30.566Z,0.60
2022-07-28T07:20:31.166Z,0.60
2022-07-28T07:21:31.055Z,0.60
2022-07-28T07:22:30.978Z,0.60
2022-07-28T07:23:30.821Z,0.40
2022-07-28T07:24:31.044Z,0.60
2022-07-28T07:25:31.199Z,0.40
2022-07-28T07:26:31.144Z,0.60
2022-07-28T07:27:30.566Z,0.50
2022-07-28T07:28:30.568Z,0.40
2022-07-28T07:29:31.003Z,0.40
2022-07-28T07:30:30.236Z,0.60
2022-07-28T07:31:30.260Z,0.60
2022-07-28T07:32:30.277Z,0.70
2022-07-28T07:33:30.386Z,0.50
2022-07-28T07:34:30.386Z,0.50
2022-07-28T07:35:30.429Z,0.50
2022-07-28T07:36:30.097Z,0.70
2022-07-28T07:37:30.538Z,0.50
2022-07-28T07:38:30.548Z,0.60
2022-07-28T07:39:30.537Z,0.50
2022-07-28T07:40:30.047Z,0.40
2022-07-28T07:41:30.847Z,1.00
2022-07-28T07:42:30.047Z,0.70
2022-07-28T07:43:30.336Z,0.40
2022-07-28T07:44:30.260Z,0.80
2022-07-28T07:45:30.378Z,0.60
2022-07-28T07:46:30.791Z,0.50
2022-07-28T07:47:30.581Z,0.50
2022-07-28T07:48:29.971Z,0.60
2022-07-28T07:49:45.133Z,0.80
2022-07-28T07:50:31.038Z,0.80
2022-07-28T07:51:30.286Z,0.60
2022-07-28T07:52:30.368Z,0.70
2022-07-28T07:53:30.039Z,0.40
2022-07-28T07:54:30.722Z,0.50
2022-07-28T07:55:34.494Z,0.60
2022-07-28T07:56:31.387Z,0.40
2022-07-28T07:57:30.700Z,0.60
2022-07-28T07:58:30.541Z,0.70
2022-07-28T07:59:31.521Z,0.40
2022-07-28T08:00:29.800Z,0.80
2022-07-28T08:01:30.018Z,0.50
2022-07-28T08:02:29.962Z,0.50
2022-07-28T08:03:29.991Z,0.30
2022-07-28T08:04:29.774Z,0.50
2022-07-28T08:05:35.560Z,0.60
2022-07-28T08:06:31.621Z,0.40
2022-07-28T08:07:29.761Z,0.60
2022-07-28T08:08:30.221Z,0.50
2022-07-28T08:09:29.704Z,0.60
2022-07-28T08:10:29.651Z,0.80
2022-07-28T08:11:29.631Z,0.40
2022-07-28T08:12:30.469Z,0.40
2022-07-28T08:13:29.623Z,0.40
2022-07-28T08:14:29.639Z,0.60
2022-07-28T08:15:29.675Z,0.40
2022-07-28T08:16:29.993Z,0.30
2022-07-28T08:17:29.632Z,0.50
2022-07-28T08:18:29.550Z,0.40
2022-07-28T08:19:29.683Z,0.60
2022-07-28T08:20:29.555Z,0.40
2022-07-28T08:21:29.613Z,0.50
2022-07-28T08:22:30.366Z,0.30
2022-07-28T08:23:29.629Z,0.50
2022-07-28T08:24:34.121Z,0.40
2022-07-28T08:25:29.649Z,0.50
2022-07-28T08:26:29.553Z,0.40
2022-07-28T08:27:29.514Z,0.50
2022-07-28T08:28:29.501Z,0.50
2022-07-28T08:29:29.430Z,0.40
2022-07-28T08:30:32.671Z,0.30
2022-07-28T08:31:29.620Z,0.60
2022-07-28T08:32:29.446Z,0.50
2022-07-28T08:33:29.367Z,0.50
2022-07-28T08:34:33.010Z,0.70
2022-07-28T08:35:33.626Z,0.50
2022-07-28T08:36:31.044Z,0.40
2022-07-28T08:37:29.400Z,0.70
2022-07-28T08:38:29.297Z,0.50
2022-07-28T08:39:29.372Z,0.70
2022-07-28T08:40:29.365Z,0.60
2022-07-28T08:41:33.824Z,0.50
2022-07-28T08:42:29.265Z,0.40
2022-07-28T08:43:29.418Z,0.30
2022-07-28T08:44:29.367Z,0.40
2022-07-28T08:45:29.355Z,0.50
2022-07-28T08:46:29.492Z,0.50
2022-07-28T08:47:40.280Z,0.40
2022-07-28T08:48:30.577Z,0.30
2022-07-28T08:49:29.439Z,0.50
2022-07-28T08:50:29.177Z,0.50
2022-07-28T08:51:29.359Z,0.60
2022-07-28T08:52:29.357Z,0.40
2022-07-28T08:53:29.097Z,0.40
2022-07-28T08:54:29.212Z,0.40
2022-07-28T08:55:31.578Z,0.50
2022-07-28T08:56:29.359Z,0.40
2022-07-28T08:57:29.359Z,0.40
2022-07-28T08:58:29.368Z,0.50
2022-07-28T08:59:29.019Z,0.60
2022-07-28T09:00:29.068Z,0.30
2022-07-28T09:01:38.996Z,0.80
2022-07-28T09:02:30.144Z,0.40
2022-07-28T09:03:29.274Z,0.50
2022-07-28T09:04:29.936Z,0.40
2022-07-28T09:05:29.898Z,0.50
2022-07-28T09:06:29.692Z,0.60
2022-07-28T09:07:29.009Z,0.30
2022-07-28T09:08:29.374Z,0.60
2022-07-28T09:09:29.080Z,0.50
2022-07-28T09:10:29.374Z,0.60
2022-07-28T09:11:28.972Z,0.40
2022-07-28T09:12:28.861Z,0.70
2022-07-28T09:13:29.371Z,0.50
2022-07-28T09:14:29.099Z,0.60
2022-07-28T09:15:29.024Z,0.70
2022-07-28T09:16:29.267Z,0.50
2022-07-28T09:17:28.963Z,0.50
2022-07-28T09:18:29.373Z,0.50
2022-07-28T09:19:34.497Z,0.60
2022-07-28T09:20:29.913Z,0.40
2022-07-28T09:21:29.233Z,0.40
2022-07-28T09:22:28.871Z,0.60
2022-07-28T09:23:43.309Z,0.50
2022-07-28T09:24:29.719Z,0.40
2022-07-28T09:25:28.967Z,0.40
2022-07-28T09:26:29.304Z,0.50
2022-07-28T09:27:28.964Z,0.80
2022-07-28T09:28:28.964Z,0.40
2022-07-28T09:29:28.725Z,0.40
2022-07-28T09:30:28.957Z,0.70
2022-07-28T09:31:28.845Z,0.70
2022-07-28T09:32:29.495Z,0.40
2022-07-28T09:33:42.224Z,0.50
2022-07-28T09:34:29.616Z,0.40
2022-07-28T09:35:29.369Z,0.30
2022-07-28T09:36:28.958Z,0.50
2022-07-28T09:37:28.718Z,0.50
2022-07-28T09:38:28.520Z,0.30
2022-07-28T09:39:28.536Z,0.40
2022-07-28T09:40:28.476Z,0.60
2022-07-28T09:41:28.647Z,0.50
2022-07-28T09:42:28.468Z,0.50
2022-07-28T09:43:28.747Z,0.70
2022-07-28T09:44:28.437Z,0.40
2022-07-28T09:45:28.427Z,0.60
2022-07-28T09:46:29.732Z,0.50
2022-07-28T09:47:28.572Z,0.60
2022-07-28T09:48:28.519Z,0.50
2022-07-28T09:49:28.972Z,0.70
2022-07-28T09:50:28.861Z,0.50
2022-07-28T09:51:28.366Z,0.80
2022-07-28T09:52:28.490Z,0.50
2022-07-28T09:53:28.702Z,0.50
2022-07-28T09:54:28.390Z,0.40
2022-07-28T09:55:28.931Z,0.50
2022-07-28T09:56:28.697Z,0.50
2022-07-28T09:57:28.250Z,0.50
2022-07-28T09:58:29.003Z,0.80
2022-07-28T09:59:28.359Z,0.60
2022-07-28T10:00:28.344Z,0.50
2022-07-28T10:01:35.160Z,1.40
2022-07-28T10:02:29.327Z,0.60
2022-07-28T10:03:28.441Z,1.20
2022-07-28T10:04:28.482Z,0.50
2022-07-28T10:05:28.895Z,0.40
2022-07-28T10:06:28.843Z,0.50
2022-07-28T10:07:28.154Z,0.60
2022-07-28T10:08:28.134Z,0.60
2022-07-28T10:09:28.175Z,0.50
2022-07-28T10:10:28.233Z,0.50
2022-07-28T10:11:28.104Z,0.40
2022-07-28T10:12:28.353Z,0.80
2022-07-28T10:13:28.405Z,0.60
2022-07-28T10:14:28.465Z,0.40
2022-07-28T10:15:31.146Z,0.40
2022-07-28T10:16:28.886Z,0.40
2022-07-28T10:17:28.769Z,0.60
2022-07-28T10:18:28.694Z,0.50
2022-07-28T10:19:28.746Z,0.40
2022-07-28T10:20:28.757Z,0.60
2022-07-28T10:21:28.476Z,0.60
2022-07-28T10:22:28.810Z,0.50
2022-07-28T10:23:28.791Z,0.50
2022-07-28T10:24:28.868Z,0.50
2022-07-28T10:25:28.877Z,0.60
2022-07-28T10:26:27.908Z,0.50
2022-07-28T10:27:27.938Z,0.50
2022-07-28T10:28:28.739Z,0.50
2022-07-28T10:29:27.870Z,0.40
2022-07-28T10:30:27.908Z,0.60
2022-07-28T10:31:27.986Z,0.60
2022-07-28T10:32:28.411Z,0.40
2022-07-28T10:33:27.830Z,0.50
2022-07-28T10:34:27.790Z,0.60
2022-07-28T10:35:28.649Z,0.70
2022-07-28T10:36:28.481Z,1.60
2022-07-28T10:37:27.735Z,0.80
2022-07-28T10:38:27.770Z,0.40
2022-07-28T10:39:27.872Z,0.40
2022-07-28T10:40:27.705Z,0.50
2022-07-28T10:41:27.712Z,0.50
2022-07-28T10:42:28.020Z,0.50
2022-07-28T10:43:27.734Z,0.50
2022-07-28T10:44:27.662Z,0.50
2022-07-28T10:45:48.042Z,0.40
2022-07-28T10:46:29.284Z,0.30
2022-07-28T10:47:35.794Z,0.40
2022-07-28T10:48:28.595Z,0.50
2022-07-28T10:49:32.658Z,0.50
2022-07-28T10:50:28.884Z,0.80
2022-07-28T10:51:30.729Z,0.50
2022-07-28T10:52:46.610Z,0.40
2022-07-28T10:53:28.617Z,0.50
2022-07-28T10:54:27.621Z,0.40
2022-07-28T10:55:32.132Z,0.50
2022-07-28T10:56:28.165Z,0.50
2022-07-28T10:57:27.684Z,0.50
2022-07-28T10:58:28.473Z,0.40
2022-07-28T10:59:28.876Z,0.40
2022-07-28T11:00:31.722Z,0.30
2022-07-28T11:01:47.736Z,0.40
2022-07-28T11:02:28.965Z,0.70
2022-07-28T11:03:27.993Z,0.50
2022-07-28T11:04:29.523Z,0.40
2022-07-28T11:05:27.397Z,0.40
2022-07-28T11:06:27.389Z,0.40
2022-07-28T11:07:27.391Z,0.70
2022-07-28T11:08:27.410Z,0.40
2022-07-28T11:09:27.338Z,0.50
2022-07-28T11:10:27.328Z,0.50
2022-07-28T11:11:27.878Z,0.60
2022-07-28T11:12:28.451Z,0.40
2022-07-28T11:13:28.928Z,0.40
2022-07-28T11:14:27.779Z,0.50
2022-07-28T11:15:27.772Z,0.50
2022-07-28T11:16:28.223Z,0.50
2022-07-28T11:17:33.538Z,0.70
2022-07-28T11:18:29.061Z,0.80
2022-07-28T11:19:40.185Z,0.60
2022-07-28T11:20:29.785Z,0.60
2022-07-28T11:21:27.211Z,0.40
2022-07-28T11:22:28.629Z,0.30
2022-07-28T11:23:28.578Z,0.50
2022-07-28T11:24:27.312Z,0.40
2022-07-28T11:25:27.852Z,0.50
2022-07-28T11:26:27.963Z,0.60
2022-07-28T11:27:27.913Z,0.50
2022-07-28T11:28:27.467Z,0.40
2022-07-28T11:29:27.188Z,0.40
2022-07-28T11:30:27.248Z,0.40
2022-07-28T11:31:27.360Z,0.40
2022-07-28T11:32:31.954Z,0.30
2022-07-28T11:33:28.408Z,0.50
2022-07-28T11:34:27.034Z,0.50
2022-07-28T11:35:27.113Z,0.50
2022-07-28T11:36:27.096Z,0.40
2022-07-28T11:37:27.125Z,0.40
2022-07-28T11:38:27.325Z,0.70
2022-07-28T11:39:27.217Z,0.30
2022-07-28T11:40:27.344Z,0.40
2022-07-28T11:41:27.044Z,0.80
2022-07-28T11:42:27.045Z,0.60
2022-07-28T11:43:37.608Z,0.50
2022-07-28T11:44:28.152Z,0.40
2022-07-28T11:45:38.886Z,0.50
2022-07-28T11:46:27.926Z,0.40
2022-07-28T11:47:27.555Z,0.50
2022-07-28T11:48:26.838Z,0.70
2022-07-28T11:49:27.765Z,0.60
2022-07-28T11:50:26.959Z,0.40
2022-07-28T11:51:27.679Z,0.50
2022-07-28T11:52:27.586Z,0.40
2022-07-28T11:53:27.953Z,0.90
2022-07-28T11:54:27.651Z,0.50
2022-07-28T11:55:55.653Z,0.60
2022-07-28T11:56:27.830Z,0.60
2022-07-28T11:57:27.133Z,0.40
2022-07-28T11:58:27.815Z,0.50
2022-07-28T11:59:36.443Z,0.60
2022-07-28T12:00:28.373Z,0.40
2022-07-28T12:01:26.710Z,0.30
2022-07-28T12:02:26.754Z,0.40
2022-07-28T12:03:49.005Z,0.40
2022-07-28T12:04:28.662Z,0.40
2022-07-28T12:05:26.811Z,0.40
2022-07-28T12:06:29.894Z,0.50
2022-07-28T12:07:26.811Z,0.40
2022-07-28T12:08:26.594Z,0.50
2022-07-28T12:09:31.981Z,0.50
2022-07-28T12:11:28.942Z,0.40
2022-07-28T12:12:27.127Z,0.50
2022-07-28T12:13:26.695Z,0.60
2022-07-28T12:14:28.037Z,0.60
2022-07-28T12:15:26.984Z,0.40
2022-07-28T12:16:26.811Z,0.50
2022-07-28T12:17:26.718Z,0.40
2022-07-28T12:18:26.718Z,0.40
2022-07-28T12:19:32.595Z,0.50
2022-07-28T12:20:27.477Z,0.40
2022-07-28T12:21:26.729Z,0.40
2022-07-28T12:22:26.477Z,0.50
2022-07-28T12:23:27.124Z,0.50
2022-07-28T12:24:27.898Z,0.50
2022-07-28T12:25:26.437Z,0.40
2022-07-28T12:26:26.528Z,0.50
2022-07-28T12:27:29.194Z,0.30
2022-07-28T12:28:27.801Z,0.50
2022-07-28T12:29:27.172Z,0.70
2022-07-28T12:30:28.019Z,0.50
2022-07-28T12:31:26.523Z,0.50
2022-07-28T12:32:27.128Z,0.40
2022-07-28T12:33:29.716Z,0.60
2022-07-28T12:34:29.357Z,0.60
2022-07-28T12:35:26.300Z,0.50
2022-07-28T12:36:26.314Z,0.40
2022-07-28T12:37:26.563Z,0.40
2022-07-28T12:38:26.453Z,0.40
2022-07-28T12:39:26.546Z,0.40
2022-07-28T12:40:27.432Z,0.40
2022-07-28T12:41:26.616Z,0.40
2022-07-28T12:42:26.655Z,0.50
2022-07-28T12:43:26.168Z,0.40
2022-07-28T12:44:26.134Z,0.40
2022-07-28T12:45:26.216Z,0.40
2022-07-28T12:46:28.610Z,0.50
2022-07-28T12:47:26.706Z,0.40
2022-07-28T12:48:26.575Z,0.50
2022-07-28T12:49:26.142Z,0.60
2022-07-28T12:50:26.065Z,0.40
2022-07-28T12:51:26.077Z,0.50
2022-07-28T12:52:26.057Z,0.50
2022-07-28T12:53:26.017Z,0.50
2022-07-28T12:54:26.008Z,0.50
2022-07-28T12:55:25.986Z,0.50
2022-07-28T12:56:25.987Z,0.50
2022-07-28T12:57:26.154Z,0.60
2022-07-28T12:58:25.969Z,0.40
2022-07-28T12:59:25.948Z,0.30
2022-07-28T13:00:25.956Z,0.40
2022-07-28T13:01:25.997Z,0.40
2022-07-28T13:02:26.015Z,0.40
2022-07-28T13:03:26.290Z,0.80
2022-07-28T13:04:26.040Z,0.50
2022-07-28T13:05:25.899Z,0.60
2022-07-28T13:06:26.628Z,0.40
2022-07-28T13:07:25.981Z,0.40
2022-07-28T13:08:27.302Z,0.50
2022-07-28T13:09:33.029Z,0.40
2022-07-28T13:10:26.792Z,0.60
2022-07-28T13:11:43.262Z,0.50
2022-07-28T13:12:26.852Z,0.30
2022-07-28T13:13:25.763Z,0.50
2022-07-28T13:14:25.765Z,0.50
2022-07-28T13:15:25.747Z,0.40
2022-07-28T13:16:25.786Z,0.30
2022-07-28T13:17:25.772Z,0.50
2022-07-28T13:18:25.733Z,0.50
2022-07-28T13:19:25.685Z,0.50